Time;durP1;ratioP1;P1;durP2;ratioP2;P2;SDS_P1;SDS_P2;PMS_P1;PMS_P2;Temp;Humidity;BMP_temperature;BMP_pressure;BME280_temperature;BME280_humidity;BME280_pressure;Samples;Min_cycle;Max_cycle;Signal;HPM_P1;HPM_P2
2022/07/05 00:01:52;;;;;;;3.77;1.20;;;;;;;18.42;100.00;99347.88;5034253;28;20194;-77
2022/07/05 00:04:20;;;;;;;5.07;1.17;;;;;;;18.43;100.00;99351.41;5029645;28;20276;-78
2022/07/05 00:09:34;;;;;;;4.57;1.30;;;;;;;18.01;100.00;99352.56;5035485;28;20652;-77
2022/07/05 00:12:02;;;;;;;2.17;1.40;;;;;;;18.00;100.00;99361.59;5026715;28;20202;-78
2022/07/05 00:14:31;;;;;;;3.40;1.43;;;;;;;17.89;100.00;99364.41;5029409;28;20310;-78
2022/07/05 00:17:03;;;;;;;2.77;1.30;;;;;;;17.91;100.00;99366.94;5026669;28;20225;-78
2022/07/05 00:19:32;;;;;;;2.70;1.40;;;;;;;17.66;100.00;99363.78;5029427;28;20249;-78
2022/07/05 00:22:00;;;;;;;4.07;1.30;;;;;;;17.63;100.00;99372.09;5022434;28;20194;-78
2022/07/05 00:24:29;;;;;;;2.87;1.30;;;;;;;17.66;100.00;99366.47;5026421;28;20269;-77
2022/07/05 00:26:57;;;;;;;3.13;1.30;;;;;;;17.76;100.00;99369.19;5035018;28;20212;-78
2022/07/05 00:29:25;;;;;;;3.20;1.57;;;;;;;17.82;100.00;99378.50;5021050;28;20205;-78
2022/07/05 00:31:53;;;;;;;2.80;1.50;;;;;;;17.91;100.00;99369.63;5025730;28;20201;-77
2022/07/05 00:34:23;;;;;;;1.40;1.17;;;;;;;17.89;100.00;99368.94;5027924;28;20197;-78
2022/07/05 00:36:52;;;;;;;2.90;1.37;;;;;;;17.82;100.00;99368.63;5023433;28;20242;-79
2022/07/05 00:39:21;;;;;;;3.70;1.30;;;;;;;17.70;100.00;99375.94;5028285;28;20221;-77
2022/07/05 00:41:49;;;;;;;3.77;1.37;;;;;;;17.67;100.00;99370.84;5027976;28;20202;-77
2022/07/05 00:44:17;;;;;;;1.53;1.20;;;;;;;17.63;100.00;99377.44;5021304;28;20197;-78
2022/07/05 00:46:45;;;;;;;2.93;1.30;;;;;;;17.60;100.00;99376.88;5025351;28;20202;-78
2022/07/05 00:49:13;;;;;;;2.47;1.37;;;;;;;17.25;100.00;99382.69;5030869;28;20237;-78
2022/07/05 00:51:44;;;;;;;1.60;1.20;;;;;;;17.15;100.00;99385.31;5028304;28;20235;-78
2022/07/05 00:54:35;;;;;;;3.03;1.37;;;;;;;17.20;100.00;99379.56;5028323;28;20198;-77
2022/07/05 00:57:04;;;;;;;2.50;1.57;;;;;;;17.04;100.00;99382.72;5025808;28;20684;-77
2022/07/05 00:59:33;;;;;;;5.00;1.90;;;;;;;17.05;100.00;99384.41;5028564;28;20221;-78
2022/07/05 01:02:02;;;;;;;3.97;1.83;;;;;;;16.90;100.00;99383.09;5029363;28;20289;-78
2022/07/05 01:04:30;;;;;;;2.70;1.50;;;;;;;16.63;100.00;99387.13;5029326;28;20369;-77
2022/07/05 01:07:03;;;;;;;1.63;1.40;;;;;;;16.72;100.00;99383.69;5036233;27;20209;-78
2022/07/05 01:09:34;;;;;;;3.27;1.40;;;;;;;16.55;100.00;99390.44;5080170;27;20221;-78
2022/07/05 01:12:03;;;;;;;2.03;1.23;;;;;;;16.62;100.00;99388.09;5130601;27;20273;-77
2022/07/05 01:14:34;;;;;;;2.40;1.40;;;;;;;16.71;100.00;99391.84;5131631;27;20198;-77
2022/07/05 01:17:02;;;;;;;3.00;1.20;;;;;;;16.62;100.00;99384.59;5129432;27;20190;-78
2022/07/05 01:19:32;;;;;;;3.07;1.80;;;;;;;16.54;100.00;99378.06;5135273;27;20225;-77
2022/07/05 01:22:04;;;;;;;2.80;1.40;;;;;;;16.60;100.00;99384.72;5132614;27;20198;-78
2022/07/05 01:24:35;;;;;;;1.83;1.30;;;;;;;16.63;100.00;99379.09;5132726;27;20183;-77
2022/07/05 01:27:03;;;;;;;3.27;1.77;;;;;;;16.62;100.00;99381.91;5133685;27;20197;-77
2022/07/05 01:29:31;;;;;;;2.23;1.53;;;;;;;16.64;100.00;99385.28;5134933;27;20217;-77
2022/07/05 01:32:00;;;;;;;2.27;1.40;;;;;;;16.72;100.00;99383.69;5132625;27;20291;-77
2022/07/05 01:34:28;;;;;;;2.70;1.40;;;;;;;16.67;100.00;99377.00;5132310;27;20205;-77
2022/07/05 01:36:57;;;;;;;2.10;1.47;;;;;;;16.64;100.00;99375.44;5134862;27;20202;-77
2022/07/05 01:39:25;;;;;;;2.10;1.37;;;;;;;16.66;100.00;99376.16;5126196;27;20221;-77
2022/07/05 01:41:55;;;;;;;2.43;1.60;;;;;;;16.66;100.00;99373.47;5129576;27;20202;-77
2022/07/05 01:44:23;;;;;;;2.97;1.47;;;;;;;16.48;100.00;99383.06;5131029;27;20206;-77
2022/07/05 01:46:56;;;;;;;1.77;1.50;;;;;;;16.43;100.00;99386.16;5135672;27;20273;-77
2022/07/05 01:49:27;;;;;;;2.03;1.40;;;;;;;16.54;100.00;99386.06;5134047;27;20296;-77
2022/07/05 01:52:02;;;;;;;1.77;1.60;;;;;;;16.40;100.00;99382.84;5129714;27;20197;-77
2022/07/05 01:54:30;;;;;;;3.17;1.70;;;;;;;16.24;100.00;99378.81;5131004;27;20202;-77
2022/07/05 01:57:01;;;;;;;2.97;1.87;;;;;;;16.32;100.00;99380.84;5133943;27;20272;-78
2022/07/05 01:59:29;;;;;;;4.33;1.70;;;;;;;16.26;100.00;99378.69;5132594;27;20215;-77
2022/07/05 02:01:59;;;;;;;4.20;1.60;;;;;;;16.02;100.00;99381.59;5132929;27;20194;-77
2022/07/05 02:04:27;;;;;;;2.50;1.57;;;;;;;16.06;100.00;99376.84;5135731;27;20190;-77
2022/07/05 02:06:55;;;;;;;2.23;1.50;;;;;;;16.25;100.00;99368.97;5134303;27;20194;-77
2022/07/05 02:09:24;;;;;;;2.10;1.50;;;;;;;16.05;100.00;99375.16;5131621;27;20186;-77
2022/07/05 02:11:52;;;;;;;2.50;1.53;;;;;;;16.12;100.00;99368.31;5129835;27;20194;-77
2022/07/05 02:14:23;;;;;;;4.23;1.60;;;;;;;16.19;100.00;99367.66;5133162;27;20201;-77
2022/07/05 02:16:52;;;;;;;2.93;1.70;;;;;;;15.90;100.00;99371.91;5132656;27;20198;-77
2022/07/05 02:19:20;;;;;;;4.03;1.50;;;;;;;16.02;100.00;99370.91;5133438;27;20226;-77
2022/07/05 02:21:49;;;;;;;1.60;1.47;;;;;;;15.94;100.00;99371.53;5134930;27;20202;-78
2022/07/05 02:24:17;;;;;;;3.67;1.57;;;;;;;15.89;100.00;99376.41;5134060;27;20198;-77
2022/07/05 02:26:46;;;;;;;2.77;1.50;;;;;;;15.89;100.00;99381.75;5130336;27;20218;-77
2022/07/05 02:29:14;;;;;;;2.73;1.30;;;;;;;15.79;100.00;99372.78;5135129;27;20269;-77
2022/07/05 02:31:43;;;;;;;2.43;1.37;;;;;;;15.90;100.00;99374.56;5130676;27;20205;-77
2022/07/05 02:34:12;;;;;;;1.90;1.40;;;;;;;15.71;100.00;99369.88;5134922;27;20194;-77
2022/07/05 02:36:40;;;;;;;2.83;1.60;;;;;;;15.69;100.00;99374.53;5130406;27;20225;-77
2022/07/05 02:39:09;;;;;;;2.27;1.50;;;;;;;15.44;100.00;99372.94;5133432;27;20547;-78
2022/07/05 02:41:37;;;;;;;1.90;1.43;;;;;;;15.34;100.00;99383.50;5134589;27;20682;-77
2022/07/05 02:44:05;;;;;;;1.70;1.60;;;;;;;15.14;100.00;99384.25;5134932;27;20213;-77
2022/07/05 02:46:33;;;;;;;3.60;1.70;;;;;;;15.30;100.00;99379.41;5132509;27;20637;-77
2022/07/05 02:49:03;;;;;;;3.10;2.10;;;;;;;15.21;100.00;99379.28;5129927;27;20230;-77
2022/07/05 02:51:31;;;;;;;3.17;2.00;;;;;;;15.27;100.00;99382.31;5134616;27;20198;-77
2022/07/05 02:53:59;;;;;;;4.60;1.93;;;;;;;15.35;100.00;99379.06;5130829;27;20229;-77
2022/07/05 02:56:28;;;;;;;3.07;1.90;;;;;;;15.41;100.00;99387.41;5132502;27;20205;-78
2022/07/05 02:58:56;;;;;;;2.30;1.40;;;;;;;15.63;100.00;99381.22;5129504;27;20199;-77
2022/07/05 03:01:24;;;;;;;2.30;1.50;;;;;;;15.61;100.00;99377.81;5132832;27;20242;-77
2022/07/05 03:03:59;;;;;;;3.20;1.70;;;;;;;15.52;100.00;99383.84;5134447;27;20250;-77
2022/07/05 03:06:29;;;;;;;3.33;1.70;;;;;;;15.50;100.00;99383.13;5133360;27;20198;-77
2022/07/05 03:08:57;;;;;;;2.40;1.60;;;;;;;15.54;100.00;99383.72;5131718;27;20194;-77
2022/07/05 03:11:26;;;;;;;1.90;1.50;;;;;;;15.67;100.00;99379.16;5134154;27;20221;-77
2022/07/05 03:13:55;;;;;;;2.63;1.73;;;;;;;15.68;100.00;99394.19;5132312;27;20195;-77
2022/07/05 03:16:24;;;;;;;3.03;1.70;;;;;;;15.56;100.00;99393.34;5132623;27;20245;-77
2022/07/05 03:18:52;;;;;;;3.77;1.73;;;;;;;15.57;100.00;99391.50;5134161;27;20225;-77
2022/07/05 03:21:21;;;;;;;5.23;1.70;;;;;;;15.60;100.00;99392.13;5131567;27;20283;-77
2022/07/05 03:23:51;;;;;;;2.93;1.63;;;;;;;15.45;100.00;99396.88;5132806;27;20186;-77
2022/07/05 03:26:20;;;;;;;2.57;1.40;;;;;;;15.26;100.00;99396.66;5133768;27;20649;-77
2022/07/05 03:28:48;;;;;;;4.03;2.07;;;;;;;15.32;100.00;99404.16;5131252;27;20191;-77
2022/07/05 03:31:16;;;;;;;2.50;1.90;;;;;;;15.12;100.00;99400.38;5126843;27;20190;-77
2022/07/05 03:33:47;;;;;;;2.30;1.77;;;;;;;14.93;100.00;99404.63;5134064;27;20205;-77
2022/07/05 03:36:15;;;;;;;3.27;2.00;;;;;;;14.85;100.00;99408.72;5128657;27;20198;-77
2022/07/05 03:38:43;;;;;;;3.13;1.90;;;;;;;14.83;100.00;99409.81;5131397;27;20186;-77
2022/07/05 03:41:13;;;;;;;2.77;1.70;;;;;;;14.84;100.00;99409.69;5128941;27;20214;-77
2022/07/05 03:43:41;;;;;;;3.20;1.80;;;;;;;14.68;100.00;99403.03;5133867;27;20186;-77
2022/07/05 03:46:10;;;;;;;2.73;1.90;;;;;;;14.68;100.00;99411.88;5126077;27;20277;-77
2022/07/05 03:48:38;;;;;;;5.37;2.00;;;;;;;14.69;100.00;99410.91;5128096;27;20229;-77
2022/07/05 03:51:09;;;;;;;5.20;2.00;;;;;;;14.76;100.00;99409.44;5133525;27;20186;-78
2022/07/05 03:53:37;;;;;;;2.17;1.97;;;;;;;14.86;100.00;99414.91;5128591;27;20190;-77
2022/07/05 03:56:06;;;;;;;4.13;2.07;;;;;;;14.88;100.00;99405.84;5126313;27;20667;-77
2022/07/05 03:58:36;;;;;;;3.43;2.33;;;;;;;15.05;100.00;99409.00;5131561;27;20226;-77
2022/07/05 04:01:04;;;;;;;3.73;1.90;;;;;;;15.09;100.00;99413.13;5131562;28;20214;-77
2022/07/05 04:03:33;;;;;;;4.20;2.00;;;;;;;14.89;100.00;99412.88;5129299;27;20254;-77
2022/07/05 04:06:07;;;;;;;3.77;1.90;;;;;;;14.97;100.00;99412.28;5130525;27;20288;-77
2022/07/05 04:08:36;;;;;;;5.80;2.10;;;;;;;15.02;100.00;99404.75;5096741;28;20661;-77
2022/07/05 04:11:06;;;;;;;5.83;2.10;;;;;;;15.02;100.00;99404.75;5133495;27;20233;-77
2022/07/05 04:13:36;;;;;;;5.10;2.00;;;;;;;15.09;100.00;99410.47;5132124;27;20198;-77
2022/07/05 04:16:05;;;;;;;2.37;1.90;;;;;;;15.18;100.00;99410.59;5133275;27;20192;-77
2022/07/05 04:18:33;;;;;;;3.80;2.10;;;;;;;15.28;100.00;99416.03;5131407;27;20189;-77
2022/07/05 04:21:02;;;;;;;3.37;2.00;;;;;;;15.19;100.00;99408.75;5130496;27;20252;-78
2022/07/05 04:23:30;;;;;;;4.50;2.03;;;;;;;15.19;100.00;99408.75;5125510;27;20342;-78
2022/07/05 04:26:00;;;;;;;4.30;2.10;;;;;;;15.28;100.00;99410.72;5133478;27;20195;-78
2022/07/05 04:28:30;;;;;;;6.30;2.10;;;;;;;15.35;100.00;99409.25;5132094;27;20213;-78
2022/07/05 04:31:00;;;;;;;6.30;2.00;;;;;;;15.36;100.00;99412.78;5129177;27;20204;-78
2022/07/05 04:33:28;;;;;;;2.93;1.93;;;;;;;15.54;100.00;99408.63;5136349;27;20218;-78
2022/07/05 04:35:57;;;;;;;5.20;2.17;;;;;;;15.47;100.00;99412.75;5136034;27;20196;-78
2022/07/05 04:38:25;;;;;;;3.63;2.10;;;;;;;15.58;100.00;99417.25;5133867;27;20238;-78
2022/07/05 04:40:53;;;;;;;2.93;1.93;;;;;;;15.55;100.00;99418.34;5134392;27;20230;-77
2022/07/05 04:43:22;;;;;;;3.47;2.10;;;;;;;15.60;100.00;99417.97;5137041;27;20198;-78
2022/07/05 04:45:50;;;;;;;3.87;2.20;;;;;;;15.56;100.00;99421.84;5134727;27;20258;-78
2022/07/05 04:48:25;;;;;;;5.53;1.90;;;;;;;15.72;100.00;99420.50;5136018;27;20221;-78
2022/07/05 04:50:53;;;;;;;3.37;1.93;;;;;;;15.84;100.00;99426.69;5134006;27;20198;-78
2022/07/05 04:53:22;;;;;;;3.83;2.00;;;;;;;15.85;100.00;99432.88;5134649;27;20194;-78
2022/07/05 04:55:50;;;;;;;4.07;2.03;;;;;;;15.93;100.00;99430.44;5136657;27;20198;-78
2022/07/05 04:58:18;;;;;;;4.43;2.30;;;;;;;15.97;100.00;99437.22;5137141;27;20278;-78
2022/07/05 05:00:46;;;;;;;4.20;2.20;;;;;;;16.04;100.00;99430.41;5136768;27;20198;-78
2022/07/05 05:03:15;;;;;;;4.90;2.20;;;;;;;16.15;100.00;99437.53;5136617;27;20190;-78
2022/07/05 05:05:45;;;;;;;4.37;1.80;;;;;;;16.24;100.00;99444.81;5136824;27;20320;-78
2022/07/05 05:08:13;;;;;;;3.93;2.17;;;;;;;16.30;100.00;99442.44;5133140;27;20276;-78
2022/07/05 05:10:41;;;;;;;4.03;2.30;;;;;;;16.27;100.00;99444.53;5132953;27;20641;-78
2022/07/05 05:13:09;;;;;;;4.30;2.17;;;;;;;16.24;100.00;99448.31;5134504;27;20198;-78
2022/07/05 05:15:38;;;;;;;3.17;1.90;;;;;;;16.40;100.00;99449.69;5132626;27;20544;-78
2022/07/05 05:18:06;;;;;;;4.43;2.10;;;;;;;16.34;100.00;99447.56;5132222;27;20194;-77
2022/07/05 05:20:34;;;;;;;5.20;2.10;;;;;;;16.56;100.00;99452.81;5130551;27;20269;-78
2022/07/05 05:23:09;;;;;;;3.43;2.13;;;;;;;16.41;100.00;99452.28;5134336;27;20234;-78
2022/07/05 05:25:37;;;;;;;2.53;2.07;;;;;;;16.63;100.00;99454.00;5134829;27;20247;-78
2022/07/05 05:28:05;;;;;;;3.33;2.23;;;;;;;16.70;100.00;99452.53;5136402;27;20205;-78
2022/07/05 05:30:33;;;;;;;4.03;2.23;;;;;;;16.91;100.00;99451.69;5135000;27;20198;-78
2022/07/05 05:33:02;;;;;;;3.40;1.93;;;;;;;17.01;100.00;99444.56;5126181;27;20194;-78
2022/07/05 05:35:30;;;;;;;4.93;2.20;;;;;;;17.12;100.00;99447.16;5135008;27;20278;-78
2022/07/05 05:37:58;;;;;;;3.83;2.30;;;;;;;17.19;100.00;99448.31;5128955;27;20205;-78
2022/07/05 05:40:28;;;;;;;5.40;2.50;;;;;;;17.19;100.00;99451.00;5127462;27;20203;-78
2022/07/05 05:42:57;;;;;;;3.93;2.10;;;;;;;17.31;100.00;99449.94;5134099;27;20305;-78
2022/07/05 05:45:26;;;;;;;6.57;2.20;;;;;;;17.27;100.00;99456.50;5135056;27;20190;-78
2022/07/05 05:47:55;;;;;;;5.07;2.10;;;;;;;17.52;100.00;99454.38;5133623;27;20277;-79
2022/07/05 05:50:27;;;;;;;5.87;2.30;;;;;;;17.57;100.00;99461.03;5136872;27;20194;-78
2022/07/05 05:52:56;;;;;;;3.47;1.97;;;;;;;17.56;100.00;99456.66;5137020;27;20203;-78
2022/07/05 05:55:25;;;;;;;5.93;2.40;;;;;;;17.30;100.00;99458.94;5133549;27;20277;-78
2022/07/05 05:57:56;;;;;;;6.40;2.10;;;;;;;17.60;100.00;99471.47;5135827;27;20211;-78
2022/07/05 06:00:25;;;;;;;2.60;1.90;;;;;;;17.81;100.00;99458.03;5138440;27;20193;-78
2022/07/05 06:02:54;;;;;;;6.63;2.23;;;;;;;17.82;100.00;99470.44;5135009;27;20576;-78
2022/07/05 06:05:22;;;;;;;6.33;2.50;;;;;;;17.84;100.00;99470.31;5138668;27;20637;-78
2022/07/05 06:07:53;;;;;;;4.37;2.57;;;;;;;18.01;100.00;99464.28;5134771;27;20217;-78
2022/07/05 06:10:22;;;;;;;4.63;2.23;;;;;;;18.26;100.00;99465.63;5135513;27;20276;-78
2022/07/05 06:12:52;;;;;;;4.00;2.00;;;;;;;18.36;100.00;99468.31;5135341;27;20213;-78
2022/07/05 06:15:22;;;;;;;3.83;2.10;;;;;;;18.46;100.00;99475.38;5135582;27;20195;-78
2022/07/05 06:17:51;;;;;;;3.47;1.93;;;;;;;18.73;100.00;99473.84;5130310;27;20273;-78
2022/07/05 06:20:22;;;;;;;5.13;2.43;;;;;;;18.58;100.00;99473.38;5135037;27;20210;-78
2022/07/05 06:22:51;;;;;;;5.30;2.03;;;;;;;18.80;100.00;99472.28;5134030;27;20214;-78
2022/07/05 06:25:20;;;;;;;4.03;2.00;;;;;;;18.87;100.00;99476.94;5126188;27;20205;-77
2022/07/05 06:27:52;;;;;;;5.67;2.27;;;;;;;18.99;100.00;99474.94;5132086;27;20199;-78
2022/07/05 06:30:24;;;;;;;6.43;2.50;;;;;;;19.07;100.00;99469.69;5134861;27;20277;-78
2022/07/05 06:32:53;;;;;;;3.63;2.20;;;;;;;19.12;100.00;99475.50;5132515;27;20201;-78
2022/07/05 06:35:22;;;;;;;2.33;1.93;;;;;;;19.34;100.00;99473.44;5134769;27;20195;-78
2022/07/05 06:37:52;;;;;;;4.87;2.20;;;;;;;19.51;100.00;99478.06;5132241;27;20678;-78
2022/07/05 06:40:22;;;;;;;5.47;2.30;;;;;;;19.50;100.00;99468.31;5134853;27;20194;-77
2022/07/05 06:42:51;;;;;;;5.83;1.97;;;;;;;19.60;100.00;99479.06;5134865;27;20301;-78
2022/07/05 06:45:20;;;;;;;7.47;2.27;;;;;;;19.55;100.00;99479.44;5134528;27;20681;-77
2022/07/05 06:47:56;;;;;;;2.83;2.10;;;;;;;19.66;100.00;99478.44;5134621;27;20209;-77
2022/07/05 06:50:25;;;;;;;4.23;1.90;;;;;;;19.84;100.00;99475.81;5134486;27;20213;-78
2022/07/05 06:52:53;;;;;;;5.53;1.93;;;;;;;19.77;100.00;99480.94;5123775;27;20198;-78
2022/07/05 06:55:22;;;;;;;6.83;2.17;;;;;;;19.94;100.00;99490.06;5133991;27;20201;-78
2022/07/05 06:57:58;;;;;;;3.40;2.00;;;;;;;20.02;100.00;99485.63;5134243;27;20247;-78
2022/07/05 07:00:43;;;;;;;5.57;2.10;;;;;;;20.04;100.00;99485.47;5131843;27;20657;-78
2022/07/05 07:03:33;;;;;;;5.28;2.25;;;;;;;20.15;100.00;99479.88;5134193;27;20222;-78
2022/07/05 07:06:22;;;;;;;5.37;2.00;;;;;;;20.20;100.00;99474.06;5134393;27;20198;-78
2022/07/05 07:11:35;;;;;;;4.70;2.10;;;;;;;20.39;100.00;99484.69;5134459;27;20190;-78
2022/07/05 07:14:03;;;;;;;6.07;2.00;;;;;;;20.40;100.00;99483.69;5134307;27;20201;-78
2022/07/05 07:16:32;;;;;;;3.23;2.00;;;;;;;20.55;100.00;99487.53;5134348;27;20223;-78
2022/07/05 07:19:02;;;;;;;2.93;1.97;;;;;;;20.67;100.00;99487.34;5131296;27;20218;-78
2022/07/05 07:21:42;;;;;;;2.80;2.00;;;;;;;20.80;100.00;99485.94;5130846;27;20204;-78
2022/07/05 07:24:11;;;;;;;4.05;2.10;;;;;;;20.82;100.00;99483.06;5133784;27;20214;-78
2022/07/05 07:29:25;;;;;;;6.57;2.03;;;;;;;20.84;100.00;99491.84;5134201;27;20269;-78
2022/07/05 07:31:54;;;;;;;4.73;1.87;;;;;;;20.84;100.00;99490.03;5134234;27;20564;-78
2022/07/05 07:34:25;;;;;;;4.70;2.33;;;;;;;20.83;100.00;99495.53;5133865;27;20246;-78
2022/07/05 07:36:54;;;;;;;5.30;1.97;;;;;;;21.03;100.00;99488.13;5132301;27;20183;-79
2022/07/05 07:39:23;;;;;;;3.87;1.87;;;;;;;21.08;100.00;99492.06;5130962;27;20186;-78
2022/07/05 07:41:50;;;;;;;3.60;2.17;;;;;;;21.15;100.00;99485.03;5131706;27;20186;-78
2022/07/05 07:44:19;;;;;;;3.70;2.10;;;;;;;21.38;100.00;99482.69;5133903;27;20245;-78
2022/07/05 07:46:47;;;;;;;3.83;1.80;;;;;;;21.20;100.00;99483.69;5127375;27;20446;-78
2022/07/05 07:49:15;;;;;;;5.33;2.33;;;;;;;21.13;100.00;99481.66;5126218;27;20230;-78
2022/07/05 07:51:45;;;;;;;3.87;1.90;;;;;;;21.60;100.00;99486.66;5128165;27;20209;-78
2022/07/05 07:54:14;;;;;;;8.18;2.08;;;;;;;21.80;100.00;99481.03;5133578;27;20201;-78
2022/07/05 07:56:42;;;;;;;3.05;1.98;;;;;;;22.00;100.00;99486.03;5128651;27;20190;-78
2022/07/05 07:59:11;;;;;;;2.65;1.85;;;;;;;22.04;100.00;99489.22;5133965;28;20194;-78
2022/07/05 08:01:39;;;;;;;2.65;2.20;;;;;;;21.84;100.00;99485.97;5130755;27;20190;-79
2022/07/05 08:04:13;;;;;;;4.40;2.10;;;;;;;21.96;100.00;99478.41;5130902;27;20218;-78
2022/07/05 08:06:43;;;;;;;5.15;1.95;;;;;;;22.09;100.00;99489.59;5132739;27;20202;-78
2022/07/05 08:09:13;;;;;;;4.20;2.10;;;;;;;22.36;100.00;99487.66;5137973;27;20194;-79
2022/07/05 08:11:46;;;;;;;4.65;1.95;;;;;;;22.65;98.37;99482.63;5137980;27;20209;-78
2022/07/05 08:14:14;;;;;;;6.93;1.85;;;;;;;22.87;96.90;99491.13;5133437;27;20194;-78
2022/07/05 08:16:43;;;;;;;4.70;1.95;;;;;;;22.85;93.52;99489.44;5137858;27;20198;-78
2022/07/05 08:22:04;;;;;;;2.47;1.83;;;;;;;22.98;91.29;99491.66;5136339;27;20193;-78
2022/07/05 08:24:33;;;;;;;4.82;1.80;;;;;;;23.25;89.16;99487.72;5131563;27;20225;-78
2022/07/05 08:27:02;;;;;;;6.30;2.17;;;;;;;23.36;87.38;99492.78;5131879;27;20190;-79
2022/07/05 08:29:30;;;;;;;4.13;1.77;;;;;;;23.63;83.63;99485.28;5137677;27;20250;-78
2022/07/05 08:31:58;;;;;;;3.33;1.80;;;;;;;23.46;81.91;99484.50;5137205;27;20239;-78
2022/07/05 08:34:26;;;;;;;3.67;1.90;;;;;;;23.77;78.54;99481.88;5136193;27;20194;-78
2022/07/05 08:36:54;;;;;;;4.88;1.77;;;;;;;23.78;74.13;99480.00;5131292;27;20209;-78
2022/07/05 08:39:23;;;;;;;4.32;1.98;;;;;;;23.97;74.87;99476.88;5135315;27;20226;-78
2022/07/05 08:41:53;;;;;;;3.78;1.92;;;;;;;23.90;76.36;99481.31;5137200;27;20190;-79
2022/07/05 08:44:22;;;;;;;4.47;2.15;;;;;;;23.75;74.88;99475.81;5134905;27;20291;-78
2022/07/05 08:46:53;;;;;;;4.57;1.75;;;;;;;24.09;77.80;99475.47;5137119;27;20198;-78
2022/07/05 08:49:24;;;;;;;4.70;2.05;;;;;;;24.14;74.05;99480.38;5132148;27;20222;-79
2022/07/05 08:51:54;;;;;;;4.30;1.73;;;;;;;24.23;70.09;99476.59;5135897;27;20194;-78
2022/07/05 08:54:24;;;;;;;4.85;1.75;;;;;;;23.80;74.27;99470.69;5136980;27;20186;-78
2022/07/05 08:56:54;;;;;;;6.15;2.10;;;;;;;24.40;75.07;99471.94;5136676;27;20198;-78
2022/07/05 08:59:41;;;;;;;4.03;2.10;;;;;;;24.34;72.82;99473.50;5136843;27;20613;-78
2022/07/05 09:02:12;;;;;;;3.72;1.75;;;;;;;23.87;71.34;99474.41;5136482;27;20201;-78
2022/07/05 09:04:45;;;;;;;7.38;2.47;;;;;;;23.11;73.32;99478.44;5131993;27;20221;-78
2022/07/05 09:07:16;;;;;;;6.18;1.92;;;;;;;23.70;72.35;99467.34;5132520;27;20215;-78
2022/07/05 09:09:50;;;;;;;6.45;2.65;;;;;;;24.38;68.91;99469.41;5135749;27;20255;-78
2022/07/05 09:12:20;;;;;;;4.93;2.25;;;;;;;24.74;65.92;99475.09;5136586;27;20197;-78
2022/07/05 09:14:53;;;;;;;9.68;2.22;;;;;;;24.88;61.04;99481.56;5136699;27;20218;-78
2022/07/05 09:17:22;;;;;;;5.07;2.22;;;;;;;24.55;62.38;99481.00;5136375;27;20246;-78
2022/07/05 09:20:08;;;;;;;4.43;2.15;;;;;;;24.20;66.65;99475.06;5134712;27;20202;-78
2022/07/05 09:22:47;;;;;;;4.32;2.28;;;;;;;23.97;65.05;99482.31;5131936;27;20264;-78
2022/07/05 09:25:17;;;;;;;2.72;1.85;;;;;;;24.43;63.52;99477.00;5135773;27;20244;-78
2022/07/05 09:27:52;;;;;;;3.67;2.10;;;;;;;23.39;63.41;99481.63;5134078;27;20198;-78
2022/07/05 09:30:29;;;;;;;2.53;1.60;;;;;;;23.96;63.43;99472.50;5136561;27;20277;-78
2022/07/05 09:33:05;;;;;;;3.40;1.67;;;;;;;24.42;61.49;99468.06;5135503;27;20183;-78
2022/07/05 09:35:35;;;;;;;5.47;1.77;;;;;;;23.80;62.09;99473.41;5134827;27;20197;-78
2022/07/05 09:38:04;;;;;;;3.95;1.70;;;;;;;24.23;60.67;99468.47;5134741;27;20194;-78
2022/07/05 09:40:33;;;;;;;4.03;1.88;;;;;;;24.35;58.95;99466.22;5135819;27;20199;-78
2022/07/05 09:43:16;;;;;;;2.63;2.05;;;;;;;25.16;57.30;99471.00;5134681;27;20283;-78
2022/07/05 09:45:58;;;;;;;3.60;1.60;;;;;;;25.20;54.15;99468.78;5133912;27;20194;-78
2022/07/05 09:48:28;;;;;;;3.90;1.73;;;;;;;24.59;53.30;99466.03;5128202;27;20226;-78
2022/07/05 09:51:07;;;;;;;4.53;1.77;;;;;;;24.64;52.49;99463.66;5133183;27;20194;-78
2022/07/05 09:53:58;;;;;;;2.60;1.52;;;;;;;24.89;52.62;99463.44;5134716;27;20198;-78
2022/07/05 09:56:30;;;;;;;2.72;1.58;;;;;;;24.69;57.92;99468.50;5135982;27;20229;-78
2022/07/05 09:59:19;;;;;;;3.58;1.55;;;;;;;25.03;56.57;99465.38;5130469;27;20230;-78
2022/07/05 10:01:49;;;;;;;7.32;2.00;;;;;;;25.06;54.46;99475.84;5135784;27;20203;-78
2022/07/05 10:04:18;;;;;;;2.95;1.75;;;;;;;24.96;56.76;99464.41;5133327;27;20305;-78
2022/07/05 10:06:46;;;;;;;3.75;1.65;;;;;;;24.87;56.73;99469.03;5131565;27;20242;-78
2022/07/05 10:09:19;;;;;;;3.63;1.77;;;;;;;24.92;55.30;99460.38;5134337;27;20190;-79
2022/07/05 10:11:47;;;;;;;3.58;1.50;;;;;;;25.47;53.72;99470.03;5133210;27;20186;-78
2022/07/05 10:14:19;;;;;;;4.88;1.60;;;;;;;24.91;54.74;99464.97;5132705;27;20186;-78
2022/07/05 10:17:02;;;;;;;4.65;1.50;;;;;;;25.61;53.75;99463.78;5135499;27;20218;-78
2022/07/05 10:19:36;;;;;;;5.80;1.70;;;;;;;25.39;53.23;99466.38;5131564;27;20213;-78
2022/07/05 10:22:06;;;;;;;2.33;1.50;;;;;;;25.95;49.90;99461.31;5133877;27;20198;-78
2022/07/05 10:24:45;;;;;;;5.68;1.55;;;;;;;25.26;52.20;99459.91;5135426;27;20240;-78
2022/07/05 10:27:15;;;;;;;2.30;1.40;;;;;;;25.74;50.39;99446.84;5131142;27;20186;-78
2022/07/05 10:29:46;;;;;;;2.38;1.30;;;;;;;26.40;47.74;99451.22;5133954;27;20222;-78
2022/07/05 10:32:17;;;;;;;2.08;1.50;;;;;;;26.53;49.08;99451.34;5133311;27;20190;-78
2022/07/05 10:34:47;;;;;;;3.58;1.50;;;;;;;25.56;51.19;99453.47;5134149;27;20201;-78
2022/07/05 10:37:27;;;;;;;2.58;1.55;;;;;;;25.73;56.41;99458.75;5133441;27;20198;-78
2022/07/05 10:39:57;;;;;;;3.70;1.77;;;;;;;26.52;52.96;99449.66;5130222;27;20205;-78
2022/07/05 10:42:29;;;;;;;2.95;1.33;;;;;;;26.58;52.19;99456.22;5134867;27;20233;-78
2022/07/05 10:44:58;;;;;;;3.38;1.70;;;;;;;26.60;50.50;99464.19;5133933;27;20214;-78
2022/07/05 10:47:29;;;;;;;3.13;1.65;;;;;;;25.77;51.15;99470.88;5134628;27;20190;-78
2022/07/05 10:50:03;;;;;;;5.05;1.75;;;;;;;26.30;54.30;99469.69;5134617;27;20250;-78
2022/07/05 10:52:32;;;;;;;5.38;2.00;;;;;;;25.99;55.69;99463.69;5133123;27;20202;-78
2022/07/05 10:55:27;;;;;;;2.78;1.50;;;;;;;25.67;55.41;99458.44;5134817;27;20277;-78
2022/07/05 10:58:21;;;;;;;4.85;1.85;;;;;;;26.11;54.92;99454.00;5099329;27;20197;-78
2022/07/05 11:01:29;;;;;;;6.45;1.70;;;;;;;26.03;55.79;99460.38;5133017;27;20305;-78
2022/07/05 11:04:12;;;;;;;3.72;1.92;;;;;;;25.80;56.93;99459.69;5134313;27;20194;-78
2022/07/05 11:06:43;;;;;;;4.82;1.67;;;;;;;25.49;56.59;99452.56;5133304;27;20273;-78
2022/07/05 11:09:19;;;;;;;2.67;1.50;;;;;;;25.91;58.75;99453.75;5134304;27;20182;-78
2022/07/05 11:11:48;;;;;;;3.15;1.55;;;;;;;25.69;58.07;99448.22;5132249;27;20193;-78
2022/07/05 11:14:50;;;;;;;2.78;1.50;;;;;;;26.32;50.40;99440.44;5134493;27;20212;-79
2022/07/05 11:17:29;;;;;;;5.28;1.83;;;;;;;26.44;49.36;99446.22;5134215;27;20190;-78
2022/07/05 11:20:27;;;;;;;4.88;1.80;;;;;;;26.86;47.46;99430.97;5134377;27;20198;-78
2022/07/05 11:23:10;;;;;;;2.97;1.58;;;;;;;26.31;50.13;99432.50;5132945;27;20208;-78
2022/07/05 11:25:41;;;;;;;3.33;1.55;;;;;;;26.80;48.99;99427.16;5134108;27;20221;-78
2022/07/05 11:28:24;;;;;;;5.82;1.85;;;;;;;27.58;47.28;99430.66;5130207;27;20221;-79
2022/07/05 11:30:56;;;;;;;2.53;1.55;;;;;;;28.00;47.17;99434.25;5134269;27;20218;-78
2022/07/05 11:33:45;;;;;;;3.75;1.60;;;;;;;28.26;45.08;99414.38;5130576;27;20202;-78
2022/07/05 11:36:25;;;;;;;3.72;1.45;;;;;;;28.22;43.92;99420.25;5133622;27;20194;-78
2022/07/05 11:39:13;;;;;;;2.42;1.70;;;;;;;27.79;47.15;99418.84;5126490;27;20202;-79
2022/07/05 11:41:44;;;;;;;4.05;1.67;;;;;;;27.15;48.54;99425.38;5131986;27;20195;-78
2022/07/05 11:44:13;;;;;;;2.30;1.48;;;;;;;26.67;50.59;99421.59;5133720;27;20278;-78
2022/07/05 11:46:42;;;;;;;4.30;1.70;;;;;;;26.25;52.41;99421.38;5131856;27;20200;-78
2022/07/05 11:49:31;;;;;;;3.83;1.70;;;;;;;26.47;51.23;99414.09;5133883;27;20225;-78
2022/07/05 11:52:01;;;;;;;2.45;1.45;;;;;;;27.15;47.50;99410.94;5127927;27;20281;-78
2022/07/05 11:54:31;;;;;;;4.10;1.60;;;;;;;27.49;45.23;99415.53;5133900;27;20190;-78
2022/07/05 11:57:00;;;;;;;2.53;1.58;;;;;;;27.37;44.02;99413.38;5133442;27;20196;-78